Terminal Aerodrome Forecast
Issued by NWS

Home | Current Version | Previous Version | Text Only | Print | Product List | Glossary On
Versions: 1 2 3 4 5 6 7 8 9 10 11 12 13 14 15 16
000
FTUS45 KBOI 280524
TAFTWF
TAF
KTWF 280524Z 2806/0106 19011KT P6SM BKN040 OVC070
     FM281100 21012G18KT 4SM -SHSN SCT030 OVC050
     FM281500 23015G25KT P6SM BKN030 OVC050
     FM281800 25020G30KT P6SM VCSH OVC030=

USA.gov is the U.S. government's official web portal to all federal, state and local government web resources and services.